createdAt,value
2017-12-06T00:00:10.236Z,0
2017-12-06T00:00:42.701Z,0
2017-12-06T00:01:14.716Z,0
2017-12-06T00:01:46.758Z,0
2017-12-06T00:02:18.746Z,0
2017-12-06T00:02:50.749Z,0
2017-12-06T00:03:22.789Z,0
2017-12-06T00:03:54.814Z,0
2017-12-06T00:04:26.849Z,0
2017-12-06T00:04:58.858Z,0
2017-12-06T00:05:30.957Z,0
2017-12-06T00:06:02.961Z,0
2017-12-06T00:06:35.015Z,0
2017-12-06T00:07:07.035Z,0
2017-12-06T00:07:39.071Z,0
2017-12-06T00:08:11.160Z,0
2017-12-06T00:08:43.128Z,0
2017-12-06T00:09:15.186Z,0
2017-12-06T00:09:47.212Z,0
2017-12-06T00:10:19.184Z,0
2017-12-06T00:10:51.197Z,0
2017-12-06T00:11:23.322Z,0
2017-12-06T00:11:55.382Z,0
2017-12-06T00:12:27.403Z,0
2017-12-06T00:12:59.392Z,0
2017-12-06T00:13:31.416Z,0
2017-12-06T00:14:03.442Z,0
2017-12-06T00:14:35.449Z,0
2017-12-06T00:15:07.443Z,0
2017-12-06T00:15:39.480Z,0
2017-12-06T00:16:11.503Z,0
2017-12-06T00:16:44.297Z,0
2017-12-06T00:17:16.306Z,0
2017-12-06T00:17:48.305Z,0
2017-12-06T00:18:20.307Z,0
2017-12-06T00:18:52.290Z,0
2017-12-06T00:19:24.255Z,0
2017-12-06T00:19:56.386Z,0
2017-12-06T00:20:28.525Z,0
2017-12-06T00:21:00.583Z,0
2017-12-06T00:21:32.590Z,0
2017-12-06T00:22:04.715Z,0
2017-12-06T00:22:36.738Z,0
2017-12-06T00:23:08.789Z,0
2017-12-06T00:23:40.841Z,0
2017-12-06T00:24:12.881Z,0
2017-12-06T00:24:44.910Z,0
2017-12-06T00:25:16.926Z,0
2017-12-06T00:25:48.938Z,0
2017-12-06T00:26:21.005Z,0
2017-12-06T00:26:53.034Z,0
2017-12-06T00:27:25.071Z,0
2017-12-06T00:27:57.082Z,0
2017-12-06T00:28:29.109Z,0
2017-12-06T00:29:01.138Z,0
2017-12-06T00:29:33.087Z,0
2017-12-06T00:30:05.090Z,0
2017-12-06T00:30:37.103Z,0
2017-12-06T00:31:09.094Z,0
2017-12-06T00:31:41.118Z,0
2017-12-06T00:32:13.132Z,0
2017-12-06T00:32:45.236Z,0
2017-12-06T00:33:17.255Z,0
2017-12-06T00:33:49.251Z,0
2017-12-06T00:34:21.302Z,0
2017-12-06T00:34:53.270Z,0
2017-12-06T00:35:25.277Z,0
2017-12-06T00:35:57.318Z,0
2017-12-06T00:36:29.280Z,0
2017-12-06T00:37:01.328Z,0
2017-12-06T00:37:33.358Z,0
2017-12-06T00:38:05.373Z,0
2017-12-06T00:38:37.396Z,0
2017-12-06T00:39:09.384Z,0
2017-12-06T00:39:41.385Z,0
2017-12-06T00:40:13.380Z,0
2017-12-06T00:40:45.407Z,0
2017-12-06T00:41:17.367Z,0
2017-12-06T00:41:49.504Z,0
2017-12-06T00:42:21.518Z,0
2017-12-06T00:42:53.516Z,0
2017-12-06T00:43:25.512Z,0
2017-12-06T00:43:57.533Z,0
2017-12-06T00:44:29.526Z,0
2017-12-06T00:45:01.554Z,0
2017-12-06T00:45:33.589Z,0
2017-12-06T00:46:05.573Z,0
2017-12-06T00:46:37.614Z,0
2017-12-06T00:47:09.620Z,0
2017-12-06T00:47:41.634Z,0
2017-12-06T00:48:13.695Z,0
2017-12-06T00:48:45.655Z,0
2017-12-06T00:49:17.652Z,0
2017-12-06T00:49:50.235Z,0
2017-12-06T00:50:22.228Z,0
2017-12-06T00:50:54.196Z,0
2017-12-06T00:51:26.247Z,0
2017-12-06T00:51:58.259Z,0
2017-12-06T00:52:30.264Z,0
2017-12-06T00:53:02.236Z,0
2017-12-06T00:53:34.290Z,0
2017-12-06T00:54:06.279Z,0
2017-12-06T00:54:38.385Z,0
2017-12-06T00:55:10.430Z,0
2017-12-06T00:55:42.436Z,0
2017-12-06T00:56:14.460Z,0
2017-12-06T00:56:46.489Z,0
2017-12-06T00:57:19.151Z,0
2017-12-06T00:57:51.210Z,0
2017-12-06T00:58:23.185Z,0
2017-12-06T00:58:55.202Z,0
2017-12-06T00:59:27.935Z,0
2017-12-06T00:59:59.915Z,0
2017-12-06T01:00:31.923Z,0
2017-12-06T01:01:03.959Z,0
2017-12-06T01:01:36.038Z,0
2017-12-06T01:02:08.067Z,0
2017-12-06T01:02:40.065Z,0
2017-12-06T01:03:12.108Z,0
2017-12-06T01:03:44.091Z,0
2017-12-06T01:04:16.084Z,0
2017-12-06T01:04:48.093Z,0
2017-12-06T01:05:20.075Z,0
2017-12-06T01:05:52.099Z,0
2017-12-06T01:06:24.132Z,0
2017-12-06T01:06:56.186Z,0
2017-12-06T01:07:28.203Z,0
2017-12-06T01:08:00.236Z,0
2017-12-06T01:08:32.258Z,0
2017-12-06T01:09:04.277Z,0
2017-12-06T01:09:36.299Z,0
2017-12-06T01:10:08.312Z,0
2017-12-06T01:10:40.309Z,0
2017-12-06T01:11:12.342Z,0
2017-12-06T01:11:45.260Z,0
2017-12-06T01:12:17.252Z,0
2017-12-06T01:12:49.350Z,0
2017-12-06T01:13:21.370Z,0
2017-12-06T01:13:53.351Z,0
2017-12-06T01:14:25.337Z,0
2017-12-06T01:14:57.339Z,0
2017-12-06T01:15:29.309Z,0
2017-12-06T01:16:01.332Z,0
2017-12-06T01:16:33.339Z,0
2017-12-06T01:17:05.342Z,0
2017-12-06T01:17:37.322Z,0
2017-12-06T01:18:09.357Z,0
2017-12-06T01:18:41.328Z,0
2017-12-06T01:19:13.337Z,0
2017-12-06T01:19:45.323Z,0
2017-12-06T01:20:17.350Z,0
2017-12-06T01:20:49.343Z,0
2017-12-06T01:21:21.398Z,0
2017-12-06T01:21:53.397Z,0
2017-12-06T01:22:25.447Z,0
2017-12-06T01:22:57.440Z,0
2017-12-06T01:23:29.436Z,0
2017-12-06T01:24:01.456Z,0
2017-12-06T01:24:33.597Z,0
2017-12-06T01:25:05.606Z,0
2017-12-06T01:25:37.620Z,0
2017-12-06T01:26:09.643Z,0
2017-12-06T01:26:41.638Z,0
2017-12-06T01:27:13.649Z,0
2017-12-06T01:27:45.689Z,0
2017-12-06T01:28:17.657Z,0
2017-12-06T01:28:49.654Z,0
2017-12-06T01:29:21.673Z,0
2017-12-06T01:29:53.716Z,0
2017-12-06T01:30:25.728Z,0
2017-12-06T01:30:57.744Z,0
2017-12-06T01:31:29.775Z,0
2017-12-06T01:32:01.776Z,0
2017-12-06T01:32:33.808Z,0
2017-12-06T01:33:05.814Z,0
2017-12-06T01:33:37.833Z,0
2017-12-06T01:34:09.790Z,0
2017-12-06T01:34:41.803Z,0
2017-12-06T01:35:13.864Z,0
2017-12-06T01:35:45.891Z,0
2017-12-06T01:36:17.876Z,0
2017-12-06T01:36:49.902Z,0
2017-12-06T01:37:21.909Z,0
2017-12-06T01:37:53.930Z,0
2017-12-06T01:38:25.942Z,0
2017-12-06T01:38:57.910Z,0
2017-12-06T01:39:29.897Z,0
2017-12-06T01:40:01.899Z,0
2017-12-06T01:40:33.912Z,0
2017-12-06T01:41:06.049Z,0
2017-12-06T01:41:38.069Z,0
2017-12-06T01:42:10.087Z,0
2017-12-06T01:42:42.011Z,0
2017-12-06T01:43:14.034Z,0
2017-12-06T01:43:46.023Z,0
2017-12-06T01:44:18.085Z,0
2017-12-06T01:44:50.775Z,0
2017-12-06T01:45:22.777Z,0
2017-12-06T01:45:54.778Z,0
2017-12-06T01:46:26.776Z,0
2017-12-06T01:46:58.785Z,0
2017-12-06T01:47:30.781Z,0
2017-12-06T01:48:02.758Z,0
2017-12-06T01:48:34.767Z,0
2017-12-06T01:49:06.857Z,0
2017-12-06T01:49:38.858Z,0
2017-12-06T01:50:10.863Z,0
2017-12-06T01:50:42.990Z,0
2017-12-06T01:51:15.028Z,0
2017-12-06T01:51:47.049Z,0
2017-12-06T01:52:19.028Z,0
2017-12-06T01:52:50.994Z,0
2017-12-06T01:53:22.991Z,0
2017-12-06T01:53:55.004Z,0
2017-12-06T01:54:26.970Z,0
2017-12-06T01:54:59.015Z,0
2017-12-06T01:55:31.130Z,0
2017-12-06T01:56:03.131Z,0
2017-12-06T01:56:35.169Z,0
2017-12-06T01:57:07.222Z,0
2017-12-06T01:57:39.244Z,0
2017-12-06T01:58:11.227Z,0
2017-12-06T01:58:43.241Z,0
2017-12-06T01:59:15.278Z,0
2017-12-06T01:59:47.317Z,0
2017-12-06T02:00:19.333Z,0
2017-12-06T02:00:51.872Z,0
2017-12-06T02:01:24.002Z,0
2017-12-06T02:01:56.003Z,0
2017-12-06T02:02:27.992Z,0
2017-12-06T02:02:59.997Z,0
2017-12-06T02:03:32.040Z,0
2017-12-06T02:04:04.069Z,0
2017-12-06T02:04:36.158Z,0
2017-12-06T02:05:08.143Z,0
2017-12-06T02:05:40.113Z,0
2017-12-06T02:06:12.189Z,0
2017-12-06T02:06:44.157Z,0
2017-12-06T02:07:16.167Z,0
2017-12-06T02:07:48.290Z,0
2017-12-06T02:08:20.313Z,0
2017-12-06T02:08:52.273Z,0
2017-12-06T02:09:24.286Z,0
2017-12-06T02:09:56.281Z,0
2017-12-06T02:10:28.315Z,0
2017-12-06T02:11:00.297Z,0
2017-12-06T02:11:32.304Z,0
2017-12-06T02:12:04.404Z,0
2017-12-06T02:12:36.439Z,0
2017-12-06T02:13:08.468Z,0
2017-12-06T02:13:40.478Z,0
2017-12-06T02:14:12.478Z,0
2017-12-06T02:14:44.508Z,0
2017-12-06T02:15:16.496Z,0
2017-12-06T02:15:48.502Z,0
2017-12-06T02:16:20.586Z,0
2017-12-06T02:16:52.633Z,0
2017-12-06T02:17:24.589Z,0
2017-12-06T02:17:56.714Z,0
2017-12-06T02:18:28.720Z,0
2017-12-06T02:19:00.726Z,0
2017-12-06T02:19:32.732Z,0
2017-12-06T02:20:04.855Z,0
2017-12-06T02:20:36.861Z,0
2017-12-06T02:21:08.889Z,0
2017-12-06T02:21:40.943Z,0
2017-12-06T02:22:12.976Z,0
2017-12-06T02:22:44.996Z,0
2017-12-06T02:23:17.050Z,0
2017-12-06T02:23:49.149Z,0
2017-12-06T02:24:21.170Z,0
2017-12-06T02:24:53.145Z,0
2017-12-06T02:25:25.182Z,0
2017-12-06T02:25:57.147Z,0
2017-12-06T02:26:29.146Z,0
2017-12-06T02:27:01.169Z,0
2017-12-06T02:27:33.183Z,0
2017-12-06T02:28:05.217Z,0
2017-12-06T02:28:37.270Z,0
2017-12-06T02:29:09.374Z,0
2017-12-06T02:29:41.424Z,0
2017-12-06T02:30:13.445Z,0
2017-12-06T02:30:45.470Z,0
2017-12-06T02:31:17.474Z,0
2017-12-06T02:31:49.515Z,0
2017-12-06T02:32:22.374Z,0
2017-12-06T02:32:54.410Z,0
2017-12-06T02:33:26.573Z,0
2017-12-06T02:33:58.643Z,0
2017-12-06T02:34:30.677Z,0
2017-12-06T02:35:02.715Z,0
2017-12-06T02:35:34.781Z,0
2017-12-06T02:36:06.868Z,0
2017-12-06T02:36:38.879Z,0
2017-12-06T02:37:10.927Z,0
2017-12-06T02:37:42.959Z,0
2017-12-06T02:38:14.979Z,0
2017-12-06T02:38:46.966Z,0
2017-12-06T02:39:19.021Z,0
2017-12-06T02:39:51.022Z,0
2017-12-06T02:40:23.052Z,0
2017-12-06T02:40:55.218Z,0
2017-12-06T02:41:27.235Z,0
2017-12-06T02:41:59.234Z,0
2017-12-06T02:42:31.231Z,0
2017-12-06T02:43:03.256Z,0
2017-12-06T02:43:35.272Z,0
2017-12-06T02:44:07.370Z,0
2017-12-06T02:44:39.440Z,0
2017-12-06T02:45:11.482Z,0
2017-12-06T02:45:43.511Z,0
2017-12-06T02:46:15.505Z,0
2017-12-06T02:46:47.495Z,0
2017-12-06T02:47:19.512Z,0
2017-12-06T02:47:51.492Z,0
2017-12-06T02:48:23.570Z,0
2017-12-06T02:48:55.570Z,0
2017-12-06T02:49:27.547Z,0
2017-12-06T02:49:59.580Z,0
2017-12-06T02:50:31.610Z,0
2017-12-06T02:51:03.611Z,0
2017-12-06T02:51:35.619Z,0
2017-12-06T02:52:07.671Z,0
2017-12-06T02:52:39.773Z,0
2017-12-06T02:53:11.770Z,0
2017-12-06T02:53:43.779Z,0
2017-12-06T02:54:15.834Z,0
2017-12-06T02:54:48.309Z,0
2017-12-06T02:55:20.351Z,0
2017-12-06T02:55:53.229Z,0
2017-12-06T02:56:25.283Z,0
2017-12-06T02:56:57.281Z,0
2017-12-06T02:57:29.334Z,0
2017-12-06T02:58:01.353Z,0
2017-12-06T02:58:33.361Z,0
2017-12-06T02:59:05.354Z,0
2017-12-06T02:59:37.395Z,0
2017-12-06T03:00:09.432Z,0
2017-12-06T03:00:41.616Z,0
2017-12-06T03:01:13.649Z,0
2017-12-06T03:01:45.671Z,0
2017-12-06T03:02:17.687Z,0
2017-12-06T03:02:49.686Z,0
2017-12-06T03:03:21.734Z,0
2017-12-06T03:03:53.750Z,0
2017-12-06T03:04:25.880Z,0
2017-12-06T03:04:57.927Z,0
2017-12-06T03:05:29.956Z,0
2017-12-06T03:06:02.097Z,0
2017-12-06T03:06:34.107Z,0
2017-12-06T03:07:06.813Z,0
2017-12-06T03:07:38.831Z,0
2017-12-06T03:08:10.828Z,0
2017-12-06T03:08:42.792Z,0
2017-12-06T03:09:14.845Z,0
2017-12-06T03:09:46.925Z,0
2017-12-06T03:10:18.929Z,0
2017-12-06T03:10:50.959Z,0
2017-12-06T03:11:23.037Z,0
2017-12-06T03:11:55.046Z,0
2017-12-06T03:12:27.057Z,0
2017-12-06T03:12:59.094Z,0
2017-12-06T03:13:31.110Z,0
2017-12-06T03:14:03.903Z,0
2017-12-06T03:14:35.996Z,0
2017-12-06T03:15:08.056Z,0
2017-12-06T03:15:40.097Z,0
2017-12-06T03:16:12.123Z,0
2017-12-06T03:16:44.144Z,0
2017-12-06T03:17:16.130Z,0
2017-12-06T03:17:48.159Z,0
2017-12-06T03:18:20.180Z,0
2017-12-06T03:18:52.208Z,0
2017-12-06T03:19:25.100Z,0
2017-12-06T03:19:57.106Z,0
2017-12-06T03:20:29.118Z,0
2017-12-06T03:21:01.167Z,0
2017-12-06T03:21:33.174Z,0
2017-12-06T03:22:05.204Z,0
2017-12-06T03:22:37.275Z,0
2017-12-06T03:23:09.315Z,0
2017-12-06T03:23:41.365Z,0
2017-12-06T03:24:13.389Z,0
2017-12-06T03:24:45.354Z,0
2017-12-06T03:25:17.380Z,0
2017-12-06T03:25:49.394Z,0
2017-12-06T03:26:21.417Z,0
2017-12-06T03:26:53.446Z,0
2017-12-06T03:27:25.478Z,0
2017-12-06T03:27:57.523Z,0
2017-12-06T03:28:29.524Z,0
2017-12-06T03:29:01.538Z,0
2017-12-06T03:29:33.557Z,0
2017-12-06T03:30:05.591Z,0
2017-12-06T03:30:37.600Z,0
2017-12-06T03:31:09.754Z,0
2017-12-06T03:31:41.706Z,0
2017-12-06T03:32:13.713Z,0
2017-12-06T03:32:45.752Z,0
2017-12-06T03:33:17.774Z,0
2017-12-06T03:33:49.784Z,0
2017-12-06T03:34:21.791Z,0
2017-12-06T03:34:53.812Z,0
2017-12-06T03:35:25.842Z,0
2017-12-06T03:35:57.883Z,0
2017-12-06T03:36:29.868Z,0
2017-12-06T03:37:01.902Z,0
2017-12-06T03:37:33.882Z,0
2017-12-06T03:38:05.872Z,0
2017-12-06T03:38:37.900Z,0
2017-12-06T03:39:09.895Z,0
2017-12-06T03:39:41.890Z,0
2017-12-06T03:40:13.981Z,0
2017-12-06T03:40:46.000Z,0
2017-12-06T03:41:18.020Z,0
2017-12-06T03:41:49.983Z,0
2017-12-06T03:42:22.004Z,0
2017-12-06T03:42:54.064Z,0
2017-12-06T03:43:26.792Z,0
2017-12-06T03:43:58.759Z,0
2017-12-06T03:44:30.767Z,0
2017-12-06T03:45:02.822Z,0
2017-12-06T03:45:34.876Z,0
2017-12-06T03:46:06.888Z,0
2017-12-06T03:46:38.936Z,0
2017-12-06T03:47:10.932Z,0
2017-12-06T03:47:42.942Z,0
2017-12-06T03:48:14.971Z,0
2017-12-06T03:48:47.093Z,0
2017-12-06T03:49:19.200Z,0
2017-12-06T03:49:51.205Z,0
2017-12-06T03:50:23.197Z,0
2017-12-06T03:50:55.253Z,0
2017-12-06T03:51:27.256Z,0
2017-12-06T03:51:59.278Z,0
2017-12-06T03:52:31.267Z,0
2017-12-06T03:53:03.277Z,0
2017-12-06T03:53:35.279Z,0
2017-12-06T03:54:07.300Z,0
2017-12-06T03:54:39.341Z,0
2017-12-06T03:55:11.399Z,0
2017-12-06T03:55:43.514Z,0
2017-12-06T03:56:15.526Z,0
2017-12-06T03:56:47.571Z,0
2017-12-06T03:57:19.551Z,0
2017-12-06T03:57:51.572Z,0
2017-12-06T03:58:23.533Z,0
2017-12-06T03:58:55.596Z,0
2017-12-06T03:59:29.161Z,0
2017-12-06T04:00:01.134Z,0
2017-12-06T04:00:33.122Z,0
2017-12-06T04:01:05.163Z,0
2017-12-06T04:01:37.118Z,0
2017-12-06T04:02:09.153Z,0
2017-12-06T04:02:41.175Z,0
2017-12-06T04:03:13.143Z,0
2017-12-06T04:03:45.143Z,0
2017-12-06T04:04:17.202Z,0
2017-12-06T04:04:49.214Z,0
2017-12-06T04:05:21.356Z,0
2017-12-06T04:05:53.350Z,0
2017-12-06T04:06:25.354Z,0
2017-12-06T04:06:57.370Z,0
2017-12-06T04:07:29.406Z,0
2017-12-06T04:08:01.417Z,0
2017-12-06T04:08:33.440Z,0
2017-12-06T04:09:05.423Z,0
2017-12-06T04:09:37.413Z,0
2017-12-06T04:10:09.424Z,0
2017-12-06T04:10:41.455Z,0
2017-12-06T04:11:13.484Z,0
2017-12-06T04:11:45.547Z,0
2017-12-06T04:12:17.598Z,0
2017-12-06T04:12:49.590Z,0
2017-12-06T04:13:21.587Z,0
2017-12-06T04:13:53.631Z,0
2017-12-06T04:14:25.639Z,0
2017-12-06T04:14:57.658Z,0
2017-12-06T04:15:29.662Z,0
2017-12-06T04:16:01.666Z,0
2017-12-06T04:16:33.648Z,0
2017-12-06T04:17:05.675Z,0
2017-12-06T04:17:37.684Z,0
2017-12-06T04:18:09.702Z,0
2017-12-06T04:18:41.709Z,0
2017-12-06T04:19:14.356Z,0
2017-12-06T04:19:46.386Z,0
2017-12-06T04:20:18.380Z,0
2017-12-06T04:20:50.419Z,0
2017-12-06T04:21:22.439Z,0
2017-12-06T04:21:54.397Z,0
2017-12-06T04:22:26.449Z,0
2017-12-06T04:22:58.436Z,0
2017-12-06T04:23:30.405Z,0
2017-12-06T04:24:02.406Z,0
2017-12-06T04:24:34.864Z,0
2017-12-06T04:25:07.548Z,0
2017-12-06T04:25:39.534Z,0
2017-12-06T04:26:11.579Z,0
2017-12-06T04:26:43.594Z,0
2017-12-06T04:27:15.618Z,0
2017-12-06T04:27:47.619Z,0
2017-12-06T04:28:19.643Z,0
2017-12-06T04:28:51.634Z,0
2017-12-06T04:29:23.677Z,0
2017-12-06T04:29:55.696Z,0
2017-12-06T04:30:27.705Z,0
2017-12-06T04:30:59.723Z,0
2017-12-06T04:31:31.760Z,0
2017-12-06T04:32:03.764Z,0
2017-12-06T04:32:35.778Z,0
2017-12-06T04:33:07.779Z,0
2017-12-06T04:33:39.742Z,0
2017-12-06T04:34:11.892Z,0
2017-12-06T04:34:43.881Z,0
2017-12-06T04:35:15.944Z,0
2017-12-06T04:35:48.001Z,0
2017-12-06T04:36:19.992Z,0
2017-12-06T04:36:51.999Z,0
2017-12-06T04:37:23.997Z,0
2017-12-06T04:37:56.005Z,0
2017-12-06T04:38:28.012Z,0
2017-12-06T04:39:00.043Z,0
2017-12-06T04:39:32.044Z,0
2017-12-06T04:40:04.069Z,0
2017-12-06T04:40:36.132Z,0
2017-12-06T04:41:08.123Z,0
2017-12-06T04:41:40.170Z,0
2017-12-06T04:42:12.188Z,0
2017-12-06T04:42:44.204Z,0
2017-12-06T04:43:16.335Z,0
2017-12-06T04:43:48.351Z,0
2017-12-06T04:44:20.392Z,0
2017-12-06T04:44:52.444Z,0
2017-12-06T04:45:24.444Z,0
2017-12-06T04:45:56.492Z,0
2017-12-06T04:46:28.487Z,0
2017-12-06T04:47:00.590Z,0
2017-12-06T04:47:32.621Z,0
2017-12-06T04:48:04.603Z,0
2017-12-06T04:48:36.615Z,0
2017-12-06T04:49:08.631Z,0
2017-12-06T04:49:40.653Z,0
2017-12-06T04:50:12.788Z,0
2017-12-06T04:50:44.814Z,0
2017-12-06T04:51:16.865Z,0
2017-12-06T04:51:48.887Z,0
2017-12-06T04:52:20.912Z,0
2017-12-06T04:52:52.928Z,0
2017-12-06T04:53:24.956Z,0
2017-12-06T04:53:57.046Z,0
2017-12-06T04:54:29.056Z,0
2017-12-06T04:55:01.082Z,0
2017-12-06T04:55:33.085Z,0
2017-12-06T04:56:05.157Z,0
2017-12-06T04:56:37.176Z,0
2017-12-06T04:57:09.276Z,0
2017-12-06T04:57:41.417Z,0
2017-12-06T04:58:13.417Z,0
2017-12-06T04:58:45.452Z,0
2017-12-06T04:59:17.461Z,0
2017-12-06T04:59:49.518Z,0
2017-12-06T05:00:21.493Z,0
2017-12-06T05:00:53.503Z,0
2017-12-06T05:01:25.479Z,0
2017-12-06T05:01:57.512Z,0
2017-12-06T05:02:29.520Z,0
2017-12-06T05:03:01.581Z,0
2017-12-06T05:03:33.587Z,0
2017-12-06T05:04:05.598Z,0
2017-12-06T05:04:37.580Z,0
2017-12-06T05:05:09.593Z,0
2017-12-06T05:05:41.593Z,0
2017-12-06T05:06:13.633Z,0
2017-12-06T05:06:45.676Z,0
2017-12-06T05:07:17.725Z,0
2017-12-06T05:07:49.749Z,0
2017-12-06T05:08:21.751Z,0
2017-12-06T05:08:53.780Z,0
2017-12-06T05:09:25.750Z,0
2017-12-06T05:09:57.766Z,0
2017-12-06T05:10:29.782Z,0
2017-12-06T05:11:01.796Z,0
2017-12-06T05:11:33.807Z,0
2017-12-06T05:12:05.912Z,0
2017-12-06T05:12:37.945Z,0
2017-12-06T05:13:09.952Z,0
2017-12-06T05:13:42.014Z,0
2017-12-06T05:14:14.066Z,0
2017-12-06T05:14:46.090Z,0
2017-12-06T05:15:18.127Z,0
2017-12-06T05:15:50.107Z,0
2017-12-06T05:16:22.081Z,0
2017-12-06T05:16:54.100Z,0
2017-12-06T05:17:26.130Z,0
2017-12-06T05:17:58.141Z,0
2017-12-06T05:18:30.133Z,0
2017-12-06T05:19:02.137Z,0
2017-12-06T05:19:34.176Z,0
2017-12-06T05:20:06.195Z,0
2017-12-06T05:20:38.227Z,0
2017-12-06T05:21:10.330Z,0
2017-12-06T05:21:42.402Z,0
2017-12-06T05:22:14.457Z,0
2017-12-06T05:22:46.481Z,0
2017-12-06T05:23:18.519Z,0
2017-12-06T05:23:50.518Z,0
2017-12-06T05:24:22.521Z,0
2017-12-06T05:24:55.191Z,0
2017-12-06T05:25:27.220Z,0
2017-12-06T05:25:59.229Z,0
2017-12-06T05:26:31.221Z,0
2017-12-06T05:27:03.232Z,0
2017-12-06T05:27:35.988Z,0
2017-12-06T05:28:08.054Z,0
2017-12-06T05:28:40.142Z,0
2017-12-06T05:29:12.163Z,0
2017-12-06T05:29:44.166Z,0
2017-12-06T05:30:16.171Z,0
2017-12-06T05:30:48.214Z,0
2017-12-06T05:31:20.245Z,0
2017-12-06T05:31:52.259Z,0
2017-12-06T05:32:24.267Z,0
2017-12-06T05:32:56.260Z,0
2017-12-06T05:33:28.237Z,0
2017-12-06T05:34:00.243Z,0
2017-12-06T05:34:32.275Z,0
2017-12-06T05:35:04.265Z,0
2017-12-06T05:35:36.268Z,0
2017-12-06T05:36:08.304Z,0
2017-12-06T05:36:40.355Z,0
2017-12-06T05:37:12.403Z,0
2017-12-06T05:37:44.406Z,0
2017-12-06T05:38:16.418Z,0
2017-12-06T05:38:48.358Z,0
2017-12-06T05:39:20.359Z,0
2017-12-06T05:39:52.360Z,0
2017-12-06T05:40:24.388Z,0
2017-12-06T05:40:56.413Z,0
2017-12-06T05:41:28.417Z,0
2017-12-06T05:42:00.450Z,0
2017-12-06T05:42:32.431Z,0
2017-12-06T05:43:04.489Z,0
2017-12-06T05:43:36.512Z,0
2017-12-06T05:44:08.516Z,0
2017-12-06T05:44:40.656Z,0
2017-12-06T05:45:13.177Z,0
2017-12-06T05:45:45.176Z,0
2017-12-06T05:46:17.193Z,0
2017-12-06T05:46:49.208Z,0
2017-12-06T05:47:21.166Z,0
2017-12-06T05:47:53.223Z,0
2017-12-06T05:48:25.281Z,0
2017-12-06T05:48:57.311Z,0
2017-12-06T05:49:29.364Z,0
2017-12-06T05:50:01.397Z,0
2017-12-06T05:50:33.429Z,0
2017-12-06T05:51:05.468Z,0
2017-12-06T05:51:37.489Z,0
2017-12-06T05:52:09.524Z,0
2017-12-06T05:52:42.435Z,0
2017-12-06T05:53:14.469Z,0
2017-12-06T05:53:46.477Z,0
2017-12-06T05:54:18.507Z,0
2017-12-06T05:54:50.529Z,0
2017-12-06T05:55:22.515Z,0
2017-12-06T05:55:55.279Z,0
2017-12-06T05:56:27.286Z,0
2017-12-06T05:56:59.321Z,0
2017-12-06T05:57:31.325Z,0
2017-12-06T05:58:03.315Z,0
2017-12-06T05:58:35.320Z,0
2017-12-06T05:59:07.343Z,0
2017-12-06T05:59:39.314Z,0
2017-12-06T06:00:11.310Z,0
2017-12-06T06:00:43.277Z,0
2017-12-06T06:01:15.321Z,0
2017-12-06T06:01:48.000Z,0
2017-12-06T06:02:20.074Z,0
2017-12-06T06:02:52.185Z,0
2017-12-06T06:03:24.216Z,0
2017-12-06T06:03:56.216Z,0
2017-12-06T06:04:28.213Z,0
2017-12-06T06:05:00.226Z,0
2017-12-06T06:05:32.284Z,0
2017-12-06T06:06:04.909Z,0
2017-12-06T06:06:36.924Z,0
2017-12-06T06:07:08.962Z,0
2017-12-06T06:07:41.000Z,0
2017-12-06T06:08:12.965Z,0
2017-12-06T06:08:45.029Z,0
2017-12-06T06:09:17.055Z,0
2017-12-06T06:09:49.135Z,0
2017-12-06T06:10:21.164Z,0
2017-12-06T06:10:53.189Z,0
2017-12-06T06:11:25.189Z,0
2017-12-06T06:11:57.214Z,0
2017-12-06T06:12:29.217Z,0
2017-12-06T06:13:01.174Z,0
2017-12-06T06:13:33.189Z,0
2017-12-06T06:14:05.308Z,0
2017-12-06T06:14:37.384Z,0
2017-12-06T06:15:09.391Z,0
2017-12-06T06:15:41.407Z,0
2017-12-06T06:16:13.514Z,0
2017-12-06T06:16:45.512Z,0
2017-12-06T06:17:17.523Z,0
2017-12-06T06:17:49.554Z,0
2017-12-06T06:18:21.552Z,0
2017-12-06T06:18:53.606Z,0
2017-12-06T06:19:25.624Z,0
2017-12-06T06:19:57.578Z,0
2017-12-06T06:20:29.630Z,0
2017-12-06T06:21:01.577Z,0
2017-12-06T06:21:33.595Z,0
2017-12-06T06:22:05.643Z,0
2017-12-06T06:22:37.644Z,0
2017-12-06T06:23:09.834Z,0
2017-12-06T06:23:41.791Z,0
2017-12-06T06:24:13.916Z,0
2017-12-06T06:24:45.970Z,0
2017-12-06T06:25:17.972Z,0
2017-12-06T06:25:50.008Z,0
2017-12-06T06:26:22.057Z,0
2017-12-06T06:26:54.053Z,0
2017-12-06T06:27:26.069Z,0
2017-12-06T06:27:58.129Z,0
2017-12-06T06:28:30.232Z,0
2017-12-06T06:29:02.270Z,0
2017-12-06T06:29:34.244Z,0
2017-12-06T06:30:06.219Z,0
2017-12-06T06:30:38.474Z,0
2017-12-06T06:31:10.505Z,0
2017-12-06T06:31:42.547Z,0
2017-12-06T06:32:14.565Z,0
2017-12-06T06:32:46.586Z,0
2017-12-06T06:33:18.706Z,0
2017-12-06T06:33:50.699Z,0
2017-12-06T06:34:22.752Z,0
2017-12-06T06:34:54.719Z,0
2017-12-06T06:35:26.866Z,0
2017-12-06T06:35:58.874Z,0
2017-12-06T06:36:30.919Z,0
2017-12-06T07:14:23.343Z,4
2017-12-06T07:14:55.391Z,4
2017-12-06T07:15:27.519Z,4
2017-12-06T07:15:59.543Z,8
2017-12-06T07:16:31.505Z,8
2017-12-06T07:17:03.520Z,8
2017-12-06T07:17:35.514Z,8
2017-12-06T07:18:07.550Z,12
2017-12-06T07:18:40.530Z,8
2017-12-06T07:19:12.526Z,8
2017-12-06T07:19:44.602Z,8
2017-12-06T07:20:16.622Z,12
2017-12-06T07:20:48.605Z,12
2017-12-06T07:21:20.860Z,12
2017-12-06T07:21:53.734Z,12
2017-12-06T07:22:25.692Z,12
2017-12-06T07:22:57.717Z,12
2017-12-06T07:23:29.713Z,16
2017-12-06T07:24:01.757Z,16
2017-12-06T07:24:33.763Z,16
2017-12-06T07:25:05.774Z,12
2017-12-06T07:25:37.802Z,16
2017-12-06T07:26:09.787Z,16
2017-12-06T07:26:41.972Z,16
2017-12-06T07:27:14.011Z,16
2017-12-06T07:27:46.026Z,20
2017-12-06T07:28:18.053Z,20
2017-12-06T07:28:50.038Z,20
2017-12-06T07:29:22.035Z,24
2017-12-06T07:29:54.048Z,20
2017-12-06T07:30:26.047Z,20
2017-12-06T07:30:58.027Z,24
2017-12-06T07:31:30.020Z,24
2017-12-06T07:32:02.050Z,28
2017-12-06T07:32:34.855Z,28
2017-12-06T07:33:06.883Z,28
2017-12-06T07:33:39.804Z,32
2017-12-06T07:34:11.799Z,28
2017-12-06T07:34:43.844Z,28
2017-12-06T07:35:15.868Z,32
2017-12-06T07:35:47.896Z,32
2017-12-06T07:36:19.903Z,36
2017-12-06T07:36:51.889Z,40
2017-12-06T07:37:23.896Z,40
2017-12-06T07:37:55.913Z,44
2017-12-06T07:38:27.941Z,44
2017-12-06T07:39:00.077Z,44
2017-12-06T07:39:32.132Z,44
2017-12-06T07:40:04.132Z,48
2017-12-06T07:40:36.184Z,48
2017-12-06T07:41:08.376Z,52
2017-12-06T07:41:40.395Z,48
2017-12-06T07:42:12.425Z,48
2017-12-06T07:42:44.392Z,48
2017-12-06T07:43:16.410Z,48
2017-12-06T07:43:48.428Z,52
2017-12-06T07:44:20.450Z,52
2017-12-06T07:44:52.419Z,52
2017-12-06T07:45:24.449Z,52
2017-12-06T07:45:56.404Z,56
2017-12-06T07:46:28.370Z,52
2017-12-06T07:47:00.353Z,52
2017-12-06T07:47:32.326Z,56
2017-12-06T07:48:04.338Z,56
2017-12-06T07:48:36.380Z,56
2017-12-06T07:49:08.344Z,56
2017-12-06T07:49:40.368Z,60
2017-12-06T07:50:12.374Z,60
2017-12-06T07:50:44.430Z,60
2017-12-06T07:51:16.425Z,64
2017-12-06T07:51:48.442Z,64
2017-12-06T07:52:20.433Z,60
2017-12-06T07:52:52.419Z,60
2017-12-06T07:53:24.409Z,56
2017-12-06T07:53:56.436Z,60
2017-12-06T07:54:28.481Z,64
2017-12-06T07:55:00.524Z,68
2017-12-06T07:55:32.602Z,64
2017-12-06T07:56:04.605Z,68
2017-12-06T07:56:36.659Z,68
2017-12-06T07:57:08.635Z,64
2017-12-06T07:57:40.633Z,68
2017-12-06T07:58:12.727Z,72
2017-12-06T07:58:45.211Z,72
2017-12-06T07:59:17.483Z,68
2017-12-06T07:59:49.569Z,72
2017-12-06T08:00:21.634Z,72
2017-12-06T08:00:53.638Z,84
2017-12-06T08:01:25.742Z,84
2017-12-06T08:01:57.769Z,88
2017-12-06T08:02:29.805Z,84
2017-12-06T08:03:01.801Z,80
2017-12-06T08:03:33.798Z,84
2017-12-06T08:04:05.770Z,92
2017-12-06T08:04:38.547Z,96
2017-12-06T08:05:10.583Z,92
2017-12-06T08:05:42.553Z,88
2017-12-06T08:06:14.542Z,88
2017-12-06T08:06:46.574Z,92
2017-12-06T08:07:18.600Z,92
2017-12-06T08:07:50.590Z,92
2017-12-06T08:08:22.664Z,96
2017-12-06T08:08:54.709Z,96
2017-12-06T08:09:26.705Z,104
2017-12-06T08:09:58.697Z,104
2017-12-06T08:10:30.702Z,104
2017-12-06T08:11:02.670Z,96
2017-12-06T08:11:34.706Z,96
2017-12-06T08:12:06.719Z,88
2017-12-06T08:12:38.753Z,92
2017-12-06T08:13:10.738Z,92
2017-12-06T08:13:42.768Z,96
2017-12-06T08:14:14.884Z,96
2017-12-06T08:14:46.903Z,96
2017-12-06T08:15:18.920Z,92
2017-12-06T08:15:50.934Z,92
2017-12-06T08:16:22.956Z,92
2017-12-06T08:16:55.063Z,96
2017-12-06T08:17:27.089Z,104
2017-12-06T08:17:59.074Z,108
2017-12-06T08:18:31.068Z,112
2017-12-06T08:19:03.071Z,120
2017-12-06T08:19:35.070Z,120
2017-12-06T08:20:07.062Z,112
2017-12-06T08:20:39.097Z,124
2017-12-06T08:21:11.120Z,120
2017-12-06T08:21:43.151Z,116
2017-12-06T08:22:15.152Z,108
2017-12-06T08:22:47.140Z,116
2017-12-06T08:23:19.129Z,128
2017-12-06T08:23:51.173Z,124
2017-12-06T08:24:23.156Z,120
2017-12-06T08:24:55.193Z,108
2017-12-06T08:25:27.177Z,108
2017-12-06T08:25:59.178Z,104
2017-12-06T08:26:31.229Z,108
2017-12-06T08:27:03.309Z,108
2017-12-06T08:27:35.289Z,108
2017-12-06T08:28:07.273Z,112